Wetterdaten für den Flughafen Lübeck Blankensee


ADDS - METARS form results Aviation Digital Data Service (ADDS) Output produced by METARs form (0524 UTC 19 July 2018)
found at http://www.aviationweather.gov/adds/metars/
 
EDDH 190520Z 31007KT CAVOK 14/11 Q1019 NOSIG
TAF EDDH 182300Z 1900/2006 32004KT CAVOK BECMG 1908/1910 31010KT BECMG 1917/1919 33004KT

Nord: Hamburg, Lübeck
Ost: Schwerin, Rostock
Süd: Hannover
West: Bremen, Nordhloz

Copyright © 2016 Flugschule Hohensee